createdAt,value
2018-07-21T00:02:09.388Z,8.87
2018-07-21T00:04:40.507Z,5.90
2018-07-21T00:07:11.578Z,5.07
2018-07-21T00:09:42.490Z,10.30
2018-07-21T00:12:13.486Z,5.50
2018-07-21T00:14:44.621Z,6.43
2018-07-21T00:17:15.483Z,9.83
2018-07-21T00:19:46.485Z,10.57
2018-07-21T00:22:17.527Z,8.77
2018-07-21T00:24:48.508Z,5.67
2018-07-21T00:27:19.488Z,8.60
2018-07-21T00:29:50.533Z,8.50
2018-07-21T00:32:21.550Z,9.47
2018-07-21T00:34:52.491Z,9.57
2018-07-21T00:37:23.481Z,8.47
2018-07-21T00:39:54.488Z,10.90
2018-07-21T00:42:25.589Z,11.33
2018-07-21T00:44:56.561Z,10.23
2018-07-21T00:47:27.492Z,8.47
2018-07-21T00:49:58.541Z,8.90
2018-07-21T00:52:29.493Z,10.10
2018-07-21T00:55:00.485Z,7.10
2018-07-21T00:57:31.501Z,7.90
2018-07-21T01:00:02.524Z,7.47
2018-07-21T01:02:33.506Z,6.30
2018-07-21T01:05:04.504Z,9.83
2018-07-21T01:07:35.489Z,7.23
2018-07-21T01:10:07.730Z,8.17
2018-07-21T01:12:38.904Z,8.57
2018-07-21T01:15:10.529Z,10.73
2018-07-21T01:17:41.505Z,7.47
2018-07-21T01:20:12.576Z,8.20
2018-07-21T01:22:43.482Z,6.53
2018-07-21T01:25:14.492Z,10.03
2018-07-21T01:27:45.485Z,8.83
2018-07-21T01:30:16.511Z,9.50
2018-07-21T01:32:47.479Z,9.10
2018-07-21T01:35:18.558Z,8.47
2018-07-21T01:37:49.473Z,7.80
2018-07-21T01:40:20.515Z,10.30
2018-07-21T01:42:51.509Z,9.50
2018-07-21T01:45:22.498Z,9.70
2018-07-21T01:47:53.538Z,13.07
2018-07-21T01:50:24.513Z,10.73
2018-07-21T01:52:55.467Z,8.57
2018-07-21T01:55:26.529Z,6.10
2018-07-21T01:57:57.509Z,11.30
2018-07-21T02:00:28.485Z,7.00
2018-07-21T02:02:59.506Z,10.63
2018-07-21T02:05:30.505Z,8.60
2018-07-21T02:08:01.555Z,10.00
2018-07-21T02:10:32.493Z,11.10
2018-07-21T02:13:03.506Z,8.43
2018-07-21T02:15:34.489Z,10.43
2018-07-21T02:18:05.505Z,10.93
2018-07-21T02:20:36.480Z,8.63
2018-07-21T02:23:07.476Z,8.53
2018-07-21T02:25:38.529Z,10.67
2018-07-21T02:28:09.481Z,11.40
2018-07-21T02:30:40.497Z,8.20
2018-07-21T02:33:11.508Z,5.40
2018-07-21T02:35:42.501Z,10.23
2018-07-21T02:38:13.509Z,7.83
2018-07-21T02:40:44.501Z,8.90
2018-07-21T02:43:15.500Z,9.97
2018-07-21T02:45:46.593Z,7.47
2018-07-21T02:48:17.507Z,8.40
2018-07-21T02:50:48.642Z,9.33
2018-07-21T02:53:19.546Z,9.37
2018-07-21T02:55:50.516Z,6.83
2018-07-21T02:58:21.494Z,8.37
2018-07-21T03:00:52.489Z,8.10
2018-07-21T03:03:23.515Z,8.87
2018-07-21T03:05:54.525Z,10.57
2018-07-21T03:08:25.493Z,7.83
2018-07-21T03:10:56.506Z,7.87
2018-07-21T03:13:27.489Z,11.27
2018-07-21T03:15:58.550Z,7.37
2018-07-21T03:18:29.496Z,7.70
2018-07-21T03:21:00.494Z,7.70
2018-07-21T03:23:31.497Z,10.60
2018-07-21T03:26:03.016Z,8.30
2018-07-21T03:28:34.216Z,6.53
2018-07-21T03:31:05.376Z,8.27
2018-07-21T03:33:36.389Z,7.57
2018-07-21T03:36:07.463Z,8.43
2018-07-21T03:38:38.522Z,7.63
2018-07-21T03:41:09.485Z,8.37
2018-07-21T03:43:40.501Z,8.83
2018-07-21T03:46:11.512Z,9.80
2018-07-21T03:48:42.489Z,9.47
2018-07-21T03:51:13.526Z,8.57
2018-07-21T03:53:44.473Z,8.97
2018-07-21T03:56:15.509Z,8.57
2018-07-21T03:58:46.485Z,6.73
2018-07-21T04:01:17.720Z,9.03
2018-07-21T04:03:48.558Z,7.23
2018-07-21T04:09:07.475Z,9.50
2018-07-21T04:11:38.501Z,9.67
2018-07-21T04:14:10.426Z,7.77
2018-07-21T04:16:41.498Z,10.57
2018-07-21T04:19:12.477Z,9.87
2018-07-21T04:21:43.476Z,6.47
2018-07-21T04:24:14.549Z,13.50
2018-07-21T04:26:45.519Z,8.83
2018-07-21T04:30:05.361Z,13.73
2018-07-21T04:32:36.361Z,7.33
2018-07-21T04:35:07.453Z,11.50
2018-07-21T04:37:38.498Z,11.27
2018-07-21T04:40:09.484Z,8.60
2018-07-21T04:42:40.501Z,8.40
2018-07-21T04:45:11.493Z,8.67
2018-07-21T04:47:42.529Z,9.50
2018-07-21T04:50:13.489Z,9.77
2018-07-21T04:52:44.512Z,7.80
2018-07-21T04:55:15.517Z,10.63
2018-07-21T04:57:46.497Z,11.13
2018-07-21T05:00:17.489Z,10.17
2018-07-21T05:02:48.505Z,6.97
2018-07-21T05:05:19.489Z,8.77
2018-07-21T05:07:50.517Z,5.90
2018-07-21T05:10:21.476Z,9.20
2018-07-21T05:12:52.510Z,8.77
2018-07-21T05:15:23.504Z,9.50
2018-07-21T05:17:54.522Z,10.90
2018-07-21T05:20:25.509Z,6.20
2018-07-21T05:22:56.509Z,8.50
2018-07-21T05:25:27.504Z,6.00
2018-07-21T05:27:58.505Z,8.10
2018-07-21T05:30:29.621Z,6.73
2018-07-21T05:33:00.499Z,8.23
2018-07-21T05:35:31.492Z,8.47
2018-07-21T05:38:02.517Z,10.50
2018-07-21T05:40:33.516Z,12.60
2018-07-21T05:43:04.498Z,6.30
2018-07-21T05:45:35.574Z,9.07
2018-07-21T05:48:06.627Z,5.90
2018-07-21T05:50:37.548Z,9.93
2018-07-21T05:53:08.550Z,6.60
2018-07-21T05:55:39.502Z,9.23
2018-07-21T05:58:10.513Z,7.37
2018-07-21T06:00:41.529Z,8.30
2018-07-21T06:03:12.500Z,13.57
2018-07-21T06:05:43.522Z,6.87
2018-07-21T06:08:14.573Z,9.80
2018-07-21T06:10:45.611Z,14.03
2018-07-21T06:13:16.476Z,8.50
2018-07-21T06:15:47.488Z,9.07
2018-07-21T06:18:18.513Z,7.20
2018-07-21T06:20:49.478Z,10.43
2018-07-21T06:23:20.566Z,8.13
2018-07-21T06:25:51.520Z,10.20
2018-07-21T06:28:22.503Z,10.63
2018-07-21T06:30:53.535Z,7.67
2018-07-21T06:33:24.644Z,11.33
2018-07-21T06:35:55.745Z,11.17
2018-07-21T06:38:26.601Z,8.37
2018-07-21T06:40:57.513Z,11.10
2018-07-21T06:43:28.524Z,13.80
2018-07-21T06:45:59.485Z,7.83
2018-07-21T06:48:30.510Z,11.13
2018-07-21T06:51:01.545Z,13.33
2018-07-21T06:53:32.525Z,9.00
2018-07-21T06:56:03.507Z,11.50
2018-07-21T06:58:34.501Z,11.10
2018-07-21T07:01:05.518Z,14.60
2018-07-21T07:03:36.531Z,9.67
2018-07-21T07:06:07.509Z,8.60
2018-07-21T07:08:38.508Z,10.40
2018-07-21T07:11:09.480Z,8.87
2018-07-21T07:13:40.530Z,14.87
2018-07-21T07:16:11.477Z,12.80
2018-07-21T07:18:42.511Z,10.57
2018-07-21T07:21:13.505Z,11.37
2018-07-21T07:23:44.481Z,10.30
2018-07-21T07:26:15.498Z,13.13
2018-07-21T07:28:46.529Z,7.77
2018-07-21T07:31:17.521Z,10.83
2018-07-21T07:33:48.635Z,11.23
2018-07-21T07:36:19.569Z,9.80
2018-07-21T07:38:50.482Z,11.43
2018-07-21T07:41:21.497Z,10.77
2018-07-21T07:43:52.541Z,8.83
2018-07-21T07:46:23.531Z,12.20
2018-07-21T07:48:55.219Z,8.27
2018-07-21T07:51:26.392Z,10.47
2018-07-21T07:53:57.512Z,7.90
2018-07-21T07:56:28.514Z,14.23
2018-07-21T07:59:00.030Z,10.37
2018-07-21T08:01:31.488Z,10.00
2018-07-21T08:04:02.517Z,7.67
2018-07-21T08:06:33.481Z,10.37
2018-07-21T08:09:06.487Z,6.73
2018-07-21T08:11:37.470Z,9.40
2018-07-21T08:14:08.589Z,7.23
2018-07-21T08:16:39.509Z,11.17
2018-07-21T08:19:10.542Z,14.93
2018-07-21T08:21:41.470Z,6.50
2018-07-21T08:24:12.582Z,10.53
2018-07-21T08:26:43.781Z,7.03
2018-07-21T08:29:14.609Z,9.47
2018-07-21T08:31:45.488Z,7.23
2018-07-21T08:34:16.693Z,10.40
2018-07-21T08:36:47.574Z,6.83
2018-07-21T08:39:18.754Z,9.20
2018-07-21T08:41:49.626Z,8.00
2018-07-21T08:44:21.409Z,8.50
2018-07-21T08:46:52.494Z,6.13
2018-07-21T08:49:24.521Z,9.70
2018-07-21T08:51:55.493Z,8.27
2018-07-21T08:54:26.797Z,9.13
2018-07-21T08:56:57.799Z,6.60
2018-07-21T08:59:28.617Z,8.65
2018-07-21T09:02:00.518Z,6.40
2018-07-21T09:04:31.514Z,10.73
2018-07-21T09:07:02.494Z,7.20
2018-07-21T09:09:33.830Z,8.53
2018-07-21T09:14:35.473Z,8.20
2018-07-21T09:17:06.746Z,6.97
2018-07-21T09:19:38.770Z,8.43
2018-07-21T09:22:09.608Z,7.37
2018-07-21T09:24:40.495Z,8.60
2018-07-21T09:27:11.487Z,7.00
2018-07-21T09:29:42.562Z,5.73
2018-07-21T09:32:14.018Z,4.60
2018-07-21T09:34:45.726Z,7.13
2018-07-21T09:37:17.281Z,4.57
2018-07-21T09:39:48.628Z,10.67
2018-07-21T09:42:19.515Z,3.10
2018-07-21T09:44:50.493Z,4.63
2018-07-21T09:47:21.489Z,3.07
2018-07-21T09:49:52.493Z,4.20
2018-07-21T09:52:23.490Z,4.40
2018-07-21T09:54:54.485Z,3.57
2018-07-21T09:57:25.574Z,3.90
2018-07-21T09:59:56.565Z,4.43
2018-07-21T10:02:27.489Z,5.53
2018-07-21T10:04:58.782Z,3.17
2018-07-21T10:07:30.005Z,4.43
2018-07-21T10:10:01.566Z,3.30
2018-07-21T10:12:32.541Z,5.23
2018-07-21T10:15:03.555Z,6.80
2018-07-21T10:17:34.589Z,5.30
2018-07-21T10:20:05.697Z,7.23
2018-07-21T10:22:36.645Z,5.60
2018-07-21T10:25:12.553Z,8.20
2018-07-21T10:27:48.714Z,9.17
2018-07-21T10:30:20.420Z,5.60
2018-07-21T10:32:51.533Z,6.73
2018-07-21T10:35:22.509Z,6.30
2018-07-21T10:37:53.710Z,6.60
2018-07-21T10:40:24.632Z,4.40
2018-07-21T10:42:55.929Z,6.43
2018-07-21T10:45:27.415Z,6.23
2018-07-21T10:47:58.563Z,5.57
2018-07-21T10:50:29.653Z,9.37
2018-07-21T10:53:00.491Z,11.13
2018-07-21T10:55:31.501Z,9.93
2018-07-21T10:58:02.497Z,8.77
2018-07-21T11:00:34.013Z,11.57
2018-07-21T11:03:05.392Z,12.43
2018-07-21T11:05:36.594Z,11.77
2018-07-21T11:08:07.566Z,8.07
2018-07-21T11:13:24.697Z,12.17
2018-07-21T11:15:55.578Z,11.67
2018-07-21T11:18:26.497Z,10.43
2018-07-21T11:20:58.514Z,8.63
2018-07-21T11:23:29.472Z,10.77
2018-07-21T11:26:00.529Z,7.90
2018-07-21T11:28:32.373Z,10.47
2018-07-21T11:31:03.663Z,7.83
2018-07-21T11:33:34.589Z,13.23
2018-07-21T11:36:05.892Z,9.60
2018-07-21T11:38:36.555Z,12.30
2018-07-21T11:41:07.527Z,8.50
2018-07-21T11:43:38.501Z,11.70
2018-07-21T11:46:09.486Z,8.77
2018-07-21T11:48:40.485Z,13.17
2018-07-21T11:51:11.646Z,7.93
2018-07-21T11:53:42.800Z,12.63
2018-07-21T11:56:14.469Z,11.50
2018-07-21T11:58:45.533Z,11.83
2018-07-21T12:01:16.505Z,9.37
2018-07-21T12:03:47.585Z,12.87
2018-07-21T12:06:18.610Z,12.43
2018-07-21T12:08:49.496Z,13.27
2018-07-21T12:11:20.489Z,11.13
2018-07-21T12:13:51.490Z,14.43
2018-07-21T12:16:22.643Z,11.10
2018-07-21T12:18:53.606Z,14.63
2018-07-21T12:21:24.708Z,14.80
2018-07-21T12:23:55.848Z,14.77
2018-07-21T12:28:57.398Z,14.43
2018-07-21T12:31:28.742Z,12.77
2018-07-21T12:33:59.570Z,12.03
2018-07-21T12:36:30.513Z,11.17
2018-07-21T12:39:01.493Z,11.37
2018-07-21T12:41:32.533Z,10.03
2018-07-21T12:44:03.766Z,9.27
2018-07-21T12:46:34.590Z,7.23
2018-07-21T12:49:05.541Z,11.40
2018-07-21T12:51:36.512Z,8.80
2018-07-21T12:54:07.524Z,11.30
2018-07-21T12:56:38.733Z,12.03
2018-07-21T12:59:09.794Z,11.40
2018-07-21T13:01:40.647Z,10.37
2018-07-21T13:04:11.685Z,10.27
2018-07-21T13:06:43.594Z,7.17
2018-07-21T13:09:15.234Z,9.63
2018-07-21T13:11:46.474Z,10.57
2018-07-21T13:14:17.501Z,7.43
2018-07-21T13:16:48.501Z,10.17
2018-07-21T13:19:19.516Z,10.07
2018-07-21T13:21:50.790Z,9.80
2018-07-21T13:24:21.902Z,6.50
2018-07-21T13:26:53.024Z,9.13
2018-07-21T13:29:25.259Z,6.60
2018-07-21T13:31:56.379Z,8.50
2018-07-21T13:34:27.473Z,8.43
2018-07-21T13:36:59.529Z,6.87
2018-07-21T13:39:30.798Z,8.87
2018-07-21T13:42:01.916Z,8.40
2018-07-21T13:44:32.917Z,7.50
2018-07-21T13:47:03.781Z,6.30
2018-07-21T13:49:34.593Z,7.57
2018-07-21T13:52:05.562Z,7.87
2018-07-21T13:54:37.388Z,7.03
2018-07-21T13:57:08.818Z,8.87
2018-07-21T13:59:39.881Z,10.70
2018-07-21T14:02:11.191Z,6.20
2018-07-21T14:04:42.457Z,8.27
2018-07-21T14:07:14.037Z,6.30
2018-07-21T14:09:45.495Z,8.30
2018-07-21T14:12:16.504Z,6.50
2018-07-21T14:14:47.579Z,8.17
2018-07-21T14:17:18.613Z,5.60
2018-07-21T14:19:49.494Z,6.50
2018-07-21T14:22:20.597Z,6.17
2018-07-21T14:24:51.854Z,9.40
2018-07-21T14:29:54.691Z,8.57
2018-07-21T14:32:25.516Z,5.60
2018-07-21T14:34:56.541Z,7.80
2018-07-21T14:37:27.590Z,6.40
2018-07-21T14:39:58.558Z,5.33
2018-07-21T14:42:30.027Z,8.03
2018-07-21T14:45:01.605Z,6.57
2018-07-21T14:47:32.679Z,7.40
2018-07-21T14:50:04.327Z,5.60
2018-07-21T14:52:35.533Z,5.23
2018-07-21T14:55:06.649Z,9.10
2018-07-21T14:57:37.605Z,5.03
2018-07-21T15:00:08.618Z,5.77
2018-07-21T15:02:39.578Z,7.90
2018-07-21T15:05:10.508Z,5.33
2018-07-21T15:07:41.522Z,7.83
2018-07-21T15:10:12.513Z,5.63
2018-07-21T15:12:43.509Z,7.47
2018-07-21T15:15:14.506Z,6.97
2018-07-21T15:17:45.529Z,8.67
2018-07-21T15:20:16.503Z,5.53
2018-07-21T15:22:47.539Z,8.30
2018-07-21T15:25:18.490Z,6.47
2018-07-21T15:27:49.530Z,8.50
2018-07-21T15:30:20.513Z,6.57
2018-07-21T15:32:51.507Z,7.93
2018-07-21T15:35:22.531Z,6.17
2018-07-21T15:37:53.522Z,10.13
2018-07-21T15:40:24.561Z,6.90
2018-07-21T15:42:55.573Z,9.07
2018-07-21T15:45:26.506Z,7.23
2018-07-21T15:47:57.527Z,9.30
2018-07-21T15:50:28.482Z,7.10
2018-07-21T15:52:59.496Z,9.50
2018-07-21T15:55:30.538Z,7.00
2018-07-21T15:58:01.653Z,10.10
2018-07-21T16:00:32.497Z,7.30
2018-07-21T16:03:03.484Z,10.20
2018-07-21T16:05:34.493Z,7.40
2018-07-21T16:08:05.524Z,10.10
2018-07-21T16:10:36.513Z,7.73
2018-07-21T16:13:07.682Z,10.17
2018-07-21T16:15:38.549Z,7.50
2018-07-21T16:18:09.528Z,7.20
2018-07-21T16:20:40.698Z,11.70
2018-07-21T16:23:11.554Z,8.93
2018-07-21T16:25:42.521Z,9.50
2018-07-21T16:28:13.533Z,7.90
2018-07-21T16:30:44.489Z,10.80
2018-07-21T16:33:15.517Z,11.70
2018-07-21T16:35:46.489Z,7.70
2018-07-21T16:38:17.545Z,11.10
2018-07-21T16:40:48.561Z,8.57
2018-07-21T16:43:19.509Z,11.07
2018-07-21T16:45:50.530Z,7.57
2018-07-21T16:48:21.560Z,11.17
2018-07-21T16:50:52.511Z,8.27
2018-07-21T16:53:23.557Z,10.53
2018-07-21T16:55:54.522Z,8.07
2018-07-21T16:58:25.605Z,10.70
2018-07-21T17:00:56.550Z,8.17
2018-07-21T17:03:27.521Z,11.43
2018-07-21T17:05:58.501Z,7.37
2018-07-21T17:08:29.526Z,10.40
2018-07-21T17:11:00.542Z,7.20
2018-07-21T17:13:31.495Z,9.30
2018-07-21T17:16:02.535Z,6.90
2018-07-21T17:18:34.288Z,8.93
2018-07-21T17:21:05.405Z,6.77
2018-07-21T17:23:36.641Z,9.17
2018-07-21T17:26:07.516Z,7.30
2018-07-21T17:29:14.548Z,9.20
2018-07-21T17:31:45.518Z,6.93
2018-07-21T17:34:16.517Z,10.73
2018-07-21T17:36:47.490Z,7.03
2018-07-21T17:39:18.562Z,11.37
2018-07-21T17:41:49.528Z,8.97
2018-07-21T17:44:20.530Z,11.17
2018-07-21T17:46:51.511Z,8.33
2018-07-21T17:49:22.510Z,10.33
2018-07-21T17:51:53.516Z,8.00
2018-07-21T17:54:24.500Z,11.50
2018-07-21T17:56:55.529Z,7.13
2018-07-21T17:59:26.571Z,11.80
2018-07-21T18:01:58.029Z,6.70
2018-07-21T18:04:29.339Z,8.63
2018-07-21T18:07:00.366Z,6.33
2018-07-21T18:09:31.424Z,8.60
2018-07-21T18:12:02.574Z,8.30
2018-07-21T18:14:33.508Z,6.33
2018-07-21T18:17:05.370Z,8.40
2018-07-21T18:19:36.541Z,5.97
2018-07-21T18:22:07.542Z,7.60
2018-07-21T18:24:38.541Z,9.07
2018-07-21T18:27:09.535Z,8.60
2018-07-21T18:29:40.513Z,6.93
2018-07-21T18:32:11.489Z,8.63
2018-07-21T18:34:42.514Z,9.57
2018-07-21T18:37:13.509Z,6.67
2018-07-21T18:39:44.592Z,8.37
2018-07-21T18:42:15.498Z,8.63
2018-07-21T18:44:46.500Z,9.00
2018-07-21T18:47:17.527Z,9.43
2018-07-21T18:49:48.725Z,10.37
2018-07-21T18:52:19.585Z,7.70
2018-07-21T18:54:50.537Z,10.73
2018-07-21T18:57:22.019Z,10.50
2018-07-21T18:59:53.561Z,11.13
2018-07-21T19:02:25.020Z,10.90
2018-07-21T19:04:56.406Z,8.93
2018-07-21T19:07:27.524Z,12.53
2018-07-21T19:09:59.033Z,10.00
2018-07-21T19:12:35.403Z,12.70
2018-07-21T19:15:06.761Z,10.07
2018-07-21T19:17:38.193Z,15.03
2018-07-21T19:21:14.818Z,13.80
2018-07-21T19:23:46.420Z,11.55
2018-07-21T19:29:14.577Z,16.37
2018-07-21T19:31:50.709Z,14.60
2018-07-21T19:34:21.534Z,11.37
2018-07-21T19:36:52.503Z,16.30
2018-07-21T19:39:23.491Z,16.50
2018-07-21T19:41:59.602Z,12.37
2018-07-21T19:44:30.569Z,16.57
2018-07-21T19:47:01.604Z,12.67
2018-07-21T19:49:32.661Z,16.67
2018-07-21T19:52:03.924Z,12.93
2018-07-21T19:54:34.761Z,16.70
2018-07-21T19:57:05.588Z,18.17
2018-07-21T19:59:36.550Z,13.90
2018-07-21T20:02:07.534Z,19.30
2018-07-21T20:04:38.552Z,22.03
2018-07-21T20:07:09.530Z,20.97
2018-07-21T20:09:40.490Z,20.47
2018-07-21T20:12:11.522Z,22.37
2018-07-21T20:14:42.479Z,20.13
2018-07-21T20:17:13.661Z,18.10
2018-07-21T20:19:44.514Z,23.90
2018-07-21T20:22:15.498Z,23.17
2018-07-21T20:24:46.503Z,22.90
2018-07-21T20:27:17.542Z,21.33
2018-07-21T20:29:48.518Z,21.47
2018-07-21T20:32:19.509Z,21.53
2018-07-21T20:34:50.488Z,20.03
2018-07-21T20:37:21.561Z,19.00
2018-07-21T20:39:52.485Z,20.67
2018-07-21T20:42:23.512Z,19.03
2018-07-21T20:44:54.489Z,19.00
2018-07-21T20:47:25.493Z,19.20
2018-07-21T20:49:56.505Z,17.83
2018-07-21T20:52:27.500Z,18.57
2018-07-21T20:54:58.522Z,17.53
2018-07-21T20:57:29.493Z,12.83
2018-07-21T21:00:00.626Z,15.93
2018-07-21T21:02:32.517Z,15.97
2018-07-21T21:05:03.549Z,15.60
2018-07-21T21:07:34.513Z,17.53
2018-07-21T21:10:05.557Z,11.57
2018-07-21T21:12:36.582Z,17.13
2018-07-21T21:15:08.320Z,11.97
2018-07-21T21:17:39.583Z,15.80
2018-07-21T21:20:10.518Z,16.40
2018-07-21T21:22:41.596Z,11.77
2018-07-21T21:25:12.513Z,18.83
2018-07-21T21:27:43.538Z,17.27
2018-07-21T21:30:14.474Z,18.43
2018-07-21T21:32:45.503Z,17.57
2018-07-21T21:35:16.514Z,17.83
2018-07-21T21:37:47.582Z,17.70
2018-07-21T21:40:18.499Z,17.67
2018-07-21T21:42:49.496Z,12.33
2018-07-21T21:45:20.492Z,22.63
2018-07-21T21:47:51.497Z,14.80
2018-07-21T21:50:22.497Z,17.77
2018-07-21T21:52:53.518Z,12.83
2018-07-21T21:55:24.501Z,16.50
2018-07-21T21:57:55.512Z,11.97
2018-07-21T22:00:27.545Z,14.67
2018-07-21T22:02:58.486Z,14.03
2018-07-21T22:05:29.485Z,14.40
2018-07-21T22:08:00.490Z,14.80
2018-07-21T22:10:31.499Z,13.97
2018-07-21T22:13:02.506Z,14.70
2018-07-21T22:15:33.492Z,10.93
2018-07-21T22:18:04.482Z,15.10
2018-07-21T22:20:35.504Z,11.17
2018-07-21T22:23:06.488Z,13.67
2018-07-21T22:25:38.258Z,10.17
2018-07-21T22:28:09.470Z,11.47
2018-07-21T22:30:40.509Z,12.17
2018-07-21T22:33:11.484Z,9.40
2018-07-21T22:35:42.521Z,11.70
2018-07-21T22:38:13.538Z,11.10
2018-07-21T22:40:44.497Z,10.57
2018-07-21T22:43:15.566Z,11.07
2018-07-21T22:45:46.502Z,12.47
2018-07-21T22:48:17.515Z,11.50
2018-07-21T22:50:48.487Z,9.33
2018-07-21T22:53:19.485Z,12.20
2018-07-21T22:55:50.485Z,11.80
2018-07-21T22:58:21.485Z,8.63
2018-07-21T23:00:52.565Z,12.03
2018-07-21T23:03:23.513Z,12.03
2018-07-21T23:05:54.493Z,8.80
2018-07-21T23:08:25.534Z,12.77
2018-07-21T23:10:56.493Z,13.20
2018-07-21T23:13:27.557Z,12.57
2018-07-21T23:15:58.493Z,13.17
2018-07-21T23:18:29.512Z,14.10
2018-07-21T23:21:00.514Z,14.20
2018-07-21T23:23:31.493Z,15.30
2018-07-21T23:26:02.515Z,15.33
2018-07-21T23:28:33.525Z,11.97
2018-07-21T23:31:04.506Z,17.07
2018-07-21T23:33:35.562Z,16.43
2018-07-21T23:36:07.560Z,16.97
2018-07-21T23:38:38.453Z,12.27
2018-07-21T23:41:09.561Z,16.53
2018-07-21T23:43:40.521Z,12.20
2018-07-21T23:46:11.477Z,15.07
2018-07-21T23:48:42.469Z,10.47
2018-07-21T23:51:13.473Z,13.40
2018-07-21T23:53:44.435Z,10.20
2018-07-21T23:56:15.448Z,14.20
2018-07-21T23:58:46.460Z,15.17
